createdAt,value
2023-01-01T00:00:02.107Z,5.71
2023-01-01T00:01:02.044Z,5.96
2023-01-01T00:02:02.050Z,5.11
2023-01-01T00:03:01.963Z,5.40
2023-01-01T00:04:01.976Z,5.85
2023-01-01T00:05:01.875Z,5.26
2023-01-01T00:06:01.841Z,5.77
2023-01-01T00:07:01.802Z,5.23
2023-01-01T00:08:04.825Z,5.48
2023-01-01T00:09:01.709Z,5.68
2023-01-01T00:10:01.666Z,5.94
2023-01-01T00:11:01.629Z,5.86
2023-01-01T00:12:01.572Z,5.54
2023-01-01T00:13:01.543Z,5.95
2023-01-01T00:14:04.349Z,5.75
2023-01-01T00:15:02.457Z,6.93
2023-01-01T00:16:01.423Z,6.35
2023-01-01T00:17:01.390Z,6.93
2023-01-01T00:18:01.329Z,6.17
2023-01-01T00:19:01.292Z,6.32
2023-01-01T00:20:01.251Z,6.11
2023-01-01T00:21:01.210Z,6.51
2023-01-01T00:22:05.640Z,6.57
2023-01-01T00:23:02.148Z,6.32
2023-01-01T00:24:01.126Z,6.31
2023-01-01T00:25:01.100Z,6.84
2023-01-01T00:26:01.054Z,6.14
2023-01-01T00:27:01.014Z,6.40
2023-01-01T00:28:00.999Z,6.43
2023-01-01T00:29:01.429Z,6.61
2023-01-01T00:30:00.932Z,6.78
2023-01-01T00:31:00.909Z,6.85
2023-01-01T00:32:00.894Z,6.68
2023-01-01T00:33:00.854Z,7.68
2023-01-01T00:34:00.830Z,7.23
2023-01-01T00:35:00.783Z,7.91
2023-01-01T00:36:00.731Z,7.58
2023-01-01T00:37:00.690Z,7.70
2023-01-01T00:38:00.660Z,7.68
2023-01-01T00:39:00.728Z,6.89
2023-01-01T00:40:00.583Z,7.18
2023-01-01T00:41:00.510Z,8.23
2023-01-01T00:42:00.479Z,7.99
2023-01-01T00:43:00.429Z,7.73
2023-01-01T00:44:00.395Z,8.40
2023-01-01T00:45:00.343Z,7.97
2023-01-01T00:46:00.358Z,7.06
2023-01-01T00:47:00.258Z,8.24
2023-01-01T00:48:00.202Z,8.28
2023-01-01T00:49:00.162Z,8.43
2023-01-01T00:50:00.171Z,8.48
2023-01-01T00:51:00.088Z,8.89
2023-01-01T00:52:00.036Z,8.58
2023-01-01T00:53:00.003Z,8.56
2023-01-01T00:53:59.971Z,8.61
2023-01-01T00:54:59.937Z,8.97
2023-01-01T00:55:59.884Z,8.65
2023-01-01T00:56:59.898Z,8.90
2023-01-01T00:57:59.844Z,8.96
2023-01-01T00:59:00.613Z,8.46
2023-01-01T00:59:59.828Z,8.94
2023-01-01T01:00:59.961Z,9.27
2023-01-01T01:01:59.975Z,9.01
2023-01-01T01:02:59.747Z,9.30
2023-01-01T01:03:59.719Z,9.11
2023-01-01T01:04:59.697Z,9.35
2023-01-01T01:05:59.648Z,9.12
2023-01-01T01:06:59.610Z,9.53
2023-01-01T01:07:59.582Z,9.34
2023-01-01T01:08:59.551Z,9.59
2023-01-01T01:09:59.535Z,10.05
2023-01-01T01:10:59.485Z,9.48
2023-01-01T01:12:17.594Z,10.14
2023-01-01T01:13:00.445Z,9.51
2023-01-01T01:13:59.402Z,9.59
2023-01-01T01:14:59.408Z,9.85
2023-01-01T01:15:59.331Z,9.55
2023-01-01T01:16:59.331Z,9.55
2023-01-01T01:17:59.289Z,10.29
2023-01-01T01:18:59.264Z,9.93
2023-01-01T01:19:59.211Z,9.82
2023-01-01T01:20:59.170Z,10.06
2023-01-01T01:21:59.136Z,9.83
2023-01-01T01:22:59.129Z,10.14
2023-01-01T01:23:59.089Z,10.78
2023-01-01T01:24:59.043Z,10.41
2023-01-01T01:25:59.032Z,10.49
2023-01-01T01:26:58.998Z,10.70
2023-01-01T01:27:58.968Z,10.54
2023-01-01T01:28:58.947Z,10.15
2023-01-01T01:29:58.906Z,10.38
2023-01-01T01:30:58.898Z,11.03
2023-01-01T01:31:58.875Z,11.51
2023-01-01T01:32:58.834Z,10.48
2023-01-01T01:33:58.814Z,10.78
2023-01-01T01:34:58.777Z,10.77
2023-01-01T01:35:58.745Z,11.42
2023-01-01T01:36:58.708Z,11.15
2023-01-01T01:37:58.688Z,11.48
2023-01-01T01:38:58.660Z,11.21
2023-01-01T01:39:58.635Z,11.33
2023-01-01T01:40:58.585Z,11.52
2023-01-01T01:41:58.559Z,10.83
2023-01-01T01:42:58.528Z,11.86
2023-01-01T01:43:58.510Z,12.68
2023-01-01T01:44:58.501Z,12.16
2023-01-01T01:45:58.453Z,11.77
2023-01-01T01:46:58.422Z,12.06
2023-01-01T01:47:58.397Z,11.80
2023-01-01T01:48:58.354Z,11.28
2023-01-01T01:49:58.322Z,11.80
2023-01-01T01:50:58.308Z,11.95
2023-01-01T01:51:58.270Z,11.86
2023-01-01T01:52:58.324Z,11.90
2023-01-01T01:53:58.271Z,11.69
2023-01-01T01:54:58.163Z,11.35
2023-01-01T01:55:58.139Z,12.96
2023-01-01T01:56:58.112Z,12.40
2023-01-01T01:57:58.095Z,12.82
2023-01-01T01:58:58.043Z,12.23
2023-01-01T01:59:58.029Z,12.53
2023-01-01T02:00:58.117Z,12.22
2023-01-01T02:01:58.028Z,12.21
2023-01-01T02:02:57.977Z,12.76
2023-01-01T02:03:57.899Z,12.53
2023-01-01T02:04:57.871Z,11.94
2023-01-01T02:05:57.837Z,12.68
2023-01-01T02:06:57.826Z,12.23
2023-01-01T02:07:57.776Z,12.81
2023-01-01T02:08:57.751Z,13.44
2023-01-01T02:09:57.713Z,13.03
2023-01-01T02:10:57.692Z,13.81
2023-01-01T02:11:57.640Z,13.14
2023-01-01T02:12:57.604Z,13.07
2023-01-01T02:13:57.542Z,13.34
2023-01-01T02:14:57.515Z,12.77
2023-01-01T02:15:57.501Z,13.96
2023-01-01T02:16:57.415Z,13.27
2023-01-01T02:17:57.375Z,13.36
2023-01-01T02:18:57.345Z,13.34
2023-01-01T02:19:57.309Z,13.75
2023-01-01T02:20:57.279Z,13.43
2023-01-01T02:21:57.221Z,13.66
2023-01-01T02:23:03.888Z,15.22
2023-01-01T02:23:58.133Z,14.62
2023-01-01T02:24:57.084Z,13.53
2023-01-01T02:25:57.050Z,13.75
2023-01-01T02:26:57.015Z,13.98
2023-01-01T02:27:56.959Z,14.77
2023-01-01T02:28:56.953Z,15.49
2023-01-01T02:29:56.888Z,15.20
2023-01-01T02:30:56.882Z,15.21
2023-01-01T02:31:56.801Z,14.57
2023-01-01T02:32:56.755Z,15.44
2023-01-01T02:33:56.740Z,16.27
2023-01-01T02:34:56.669Z,14.71
2023-01-01T02:35:56.623Z,15.89
2023-01-01T02:36:56.595Z,16.48
2023-01-01T02:37:56.545Z,16.99
2023-01-01T02:38:56.510Z,14.85
2023-01-01T02:39:56.475Z,16.79
2023-01-01T02:40:56.409Z,16.32
2023-01-01T02:41:56.372Z,16.99
2023-01-01T02:42:56.341Z,16.40
2023-01-01T02:45:05.887Z,15.82
2023-01-01T02:46:05.921Z,15.82
2023-01-01T02:47:05.853Z,17.00
2023-01-01T02:48:05.839Z,17.54
2023-01-01T02:49:10.310Z,17.84
2023-01-01T02:50:06.800Z,18.05
2023-01-01T02:51:05.812Z,18.03
2023-01-01T02:52:05.781Z,18.06
2023-01-01T02:53:05.756Z,16.97
2023-01-01T02:54:05.740Z,17.83
2023-01-01T02:55:05.701Z,19.11
2023-01-01T02:56:05.697Z,17.83
2023-01-01T02:57:05.664Z,18.90
2023-01-01T02:58:05.660Z,17.59
2023-01-01T02:59:05.631Z,18.59
2023-01-01T03:00:05.635Z,18.83
2023-01-01T03:01:05.618Z,17.77
2023-01-01T03:02:05.739Z,18.31
2023-01-01T03:03:05.712Z,20.24
2023-01-01T03:04:05.535Z,18.94
2023-01-01T03:05:05.523Z,18.91
2023-01-01T03:06:05.513Z,18.81
2023-01-01T03:07:05.481Z,19.57
2023-01-01T03:08:05.491Z,19.48
2023-01-01T03:09:05.456Z,18.53
2023-01-01T03:10:05.433Z,18.07
2023-01-01T03:11:05.388Z,20.27
2023-01-01T03:12:05.385Z,19.91
2023-01-01T03:13:05.356Z,20.70
2023-01-01T03:14:05.328Z,20.43
2023-01-01T03:15:05.317Z,20.89
2023-01-01T03:16:05.319Z,21.78
2023-01-01T03:17:05.259Z,20.86
2023-01-01T03:18:05.228Z,20.27
2023-01-01T03:19:05.295Z,20.36
2023-01-01T03:20:05.186Z,20.46
2023-01-01T03:21:05.163Z,21.74
2023-01-01T03:22:05.144Z,21.03
2023-01-01T03:23:05.123Z,21.32
2023-01-01T03:24:05.102Z,21.42
2023-01-01T03:25:05.086Z,21.60
2023-01-01T03:26:05.064Z,21.38
2023-01-01T03:27:05.036Z,22.31
2023-01-01T03:28:05.011Z,23.49
2023-01-01T03:29:04.994Z,22.07
2023-01-01T03:30:04.967Z,21.36
2023-01-01T03:31:04.973Z,22.10
2023-01-01T03:32:04.928Z,22.75
2023-01-01T03:33:04.903Z,23.47
2023-01-01T03:34:04.903Z,22.50
2023-01-01T03:35:04.883Z,23.10
2023-01-01T03:36:04.852Z,22.27
2023-01-01T03:37:04.845Z,23.72
2023-01-01T03:38:04.841Z,23.02
2023-01-01T03:39:04.803Z,22.91
2023-01-01T03:40:04.786Z,22.31
2023-01-01T03:41:04.790Z,23.91
2023-01-01T03:42:04.750Z,22.61
2023-01-01T03:43:04.724Z,22.59
2023-01-01T03:44:04.716Z,23.82
2023-01-01T04:08:04.294Z,25.41
2023-01-01T04:31:03.771Z,27.96
2023-01-01T04:32:03.765Z,28.12
2023-01-01T04:33:03.763Z,28.26
2023-01-01T04:34:03.719Z,27.51
2023-01-01T04:35:03.710Z,26.34
2023-01-01T04:36:03.677Z,28.21
2023-01-01T04:37:06.980Z,27.93
2023-01-01T04:38:04.643Z,27.89
2023-01-01T04:39:03.615Z,26.37
2023-01-01T04:40:03.622Z,27.01
2023-01-01T04:41:03.593Z,27.42
2023-01-01T04:42:03.590Z,27.69
2023-01-01T04:43:03.589Z,28.81
2023-01-01T04:44:03.599Z,28.69
2023-01-01T04:45:03.575Z,28.53
2023-01-01T04:46:03.625Z,28.85
2023-01-01T04:47:03.557Z,28.87
2023-01-01T04:48:03.558Z,28.83
2023-01-01T04:49:03.552Z,28.80
2023-01-01T04:50:03.543Z,29.10
2023-01-01T04:51:03.535Z,28.13
2023-01-01T04:52:03.526Z,29.90
2023-01-01T04:53:03.520Z,30.73
2023-01-01T04:54:03.493Z,29.43
2023-01-01T04:55:03.499Z,30.69
2023-01-01T04:56:03.464Z,29.80
2023-01-01T04:57:03.455Z,29.14
2023-01-01T04:58:03.434Z,29.79
2023-01-01T04:59:03.417Z,30.55
2023-01-01T05:00:03.417Z,30.44
2023-01-01T05:01:03.505Z,30.09
2023-01-01T05:02:03.602Z,32.24
2023-01-01T05:03:03.427Z,30.10
2023-01-01T05:04:03.369Z,31.85
2023-01-01T05:05:03.340Z,31.48
2023-01-01T05:06:03.341Z,31.96
2023-01-01T05:07:03.318Z,30.99
2023-01-01T05:08:03.318Z,30.53
2023-01-01T05:09:03.294Z,31.70
2023-01-01T05:10:03.288Z,31.06
2023-01-01T05:11:03.295Z,31.04
2023-01-01T05:12:03.266Z,31.57
2023-01-01T05:13:03.264Z,31.54
2023-01-01T05:14:03.245Z,32.47
2023-01-01T05:15:03.245Z,30.82
2023-01-01T05:16:03.231Z,31.26
2023-01-01T05:17:03.167Z,32.16
2023-01-01T05:18:03.173Z,32.63
2023-01-01T05:19:03.132Z,32.90
2023-01-01T05:20:03.110Z,32.46
2023-01-01T05:21:03.101Z,31.96
2023-01-01T05:22:10.214Z,33.84
2023-01-01T05:23:04.027Z,32.85
2023-01-01T05:24:03.005Z,33.73
2023-01-01T05:25:02.969Z,32.71
2023-01-01T05:26:02.960Z,32.56
2023-01-01T05:27:02.936Z,31.67
2023-01-01T05:28:02.909Z,32.27
2023-01-01T05:29:02.906Z,32.65
2023-01-01T05:30:02.887Z,32.33
2023-01-01T05:31:02.847Z,33.14
2023-01-01T05:32:02.913Z,32.43
2023-01-01T05:33:02.804Z,33.91
2023-01-01T05:35:11.321Z,33.49
2023-01-01T05:54:19.627Z,32.85
2023-01-01T05:55:19.589Z,34.59
2023-01-01T05:56:19.580Z,32.20
2023-01-01T05:57:19.557Z,32.35
2023-01-01T05:58:19.532Z,33.31
2023-01-01T05:59:19.563Z,33.04
2023-01-01T06:00:19.477Z,34.37
2023-01-01T06:01:19.510Z,35.60
2023-01-01T06:02:19.464Z,32.99
2023-01-01T06:03:19.443Z,33.34
2023-01-01T06:04:19.486Z,33.31
2023-01-01T06:05:19.369Z,32.66
2023-01-01T06:06:19.356Z,33.39
2023-01-01T06:07:19.327Z,32.45
2023-01-01T06:08:19.303Z,33.38
2023-01-01T06:09:19.298Z,35.08
2023-01-01T06:10:19.274Z,32.25
2023-01-01T06:11:19.267Z,33.10
2023-01-01T06:12:19.226Z,31.58
2023-01-01T06:13:19.233Z,32.14
2023-01-01T06:14:19.187Z,33.74
2023-01-01T06:15:19.186Z,33.50
2023-01-01T06:16:19.164Z,32.52
2023-01-01T06:18:19.084Z,32.82
2023-01-01T06:20:19.128Z,32.71
2023-01-01T06:21:18.969Z,32.51
2023-01-01T06:22:18.914Z,33.91
2023-01-01T06:23:18.883Z,34.02
2023-01-01T06:24:18.888Z,34.56
2023-01-01T06:25:18.849Z,33.42
2023-01-01T06:26:18.805Z,32.75
2023-01-01T06:27:18.751Z,33.02
2023-01-01T06:28:18.724Z,33.99
2023-01-01T06:29:18.697Z,33.06
2023-01-01T06:30:18.666Z,33.92
2023-01-01T06:31:18.661Z,33.48
2023-01-01T06:32:18.576Z,34.86
2023-01-01T06:33:18.545Z,32.62
2023-01-01T06:34:18.515Z,34.11
2023-01-01T06:35:18.467Z,33.95
2023-01-01T06:36:18.440Z,33.92
2023-01-01T06:37:18.397Z,33.14
2023-01-01T06:38:18.362Z,33.86
2023-01-01T06:39:18.334Z,33.11
2023-01-01T06:40:18.306Z,32.98
2023-01-01T06:41:18.280Z,32.50
2023-01-01T06:42:18.235Z,32.34
2023-01-01T06:43:18.197Z,34.42
2023-01-01T06:44:18.146Z,33.04
2023-01-01T06:45:18.117Z,33.16
2023-01-01T06:46:18.104Z,33.15
2023-01-01T06:47:18.055Z,33.70
2023-01-01T06:48:18.002Z,33.02
2023-01-01T06:49:17.975Z,33.55
2023-01-01T06:50:17.938Z,33.05
2023-01-01T06:51:17.906Z,32.97
2023-01-01T06:52:17.858Z,34.23
2023-01-01T06:53:17.825Z,34.21
2023-01-01T06:54:17.783Z,34.98
2023-01-01T06:55:17.743Z,34.15
2023-01-01T06:56:17.719Z,31.92
2023-01-01T06:57:17.662Z,32.68
2023-01-01T06:58:17.625Z,33.31
2023-01-01T06:59:17.593Z,33.33
2023-01-01T07:00:17.566Z,33.63
2023-01-01T07:01:17.651Z,34.49
2023-01-01T07:02:17.638Z,33.26
2023-01-01T07:03:17.492Z,33.15
2023-01-01T07:04:17.423Z,33.24
2023-01-01T07:05:17.386Z,34.85
2023-01-01T07:06:17.362Z,34.22
2023-01-01T07:07:17.323Z,33.27
2023-01-01T07:08:17.270Z,32.65
2023-01-01T07:09:17.253Z,34.41
2023-01-01T07:10:17.220Z,33.31
2023-01-01T07:11:17.182Z,33.92
2023-01-01T07:12:17.137Z,33.85
2023-01-01T07:13:17.100Z,34.07
2023-01-01T07:14:17.087Z,33.47
2023-01-01T07:15:17.064Z,32.72
2023-01-01T07:16:17.037Z,33.39
2023-01-01T07:17:16.969Z,32.21
2023-01-01T07:18:16.937Z,32.92
2023-01-01T07:19:16.897Z,33.19
2023-01-01T07:20:16.871Z,33.96
2023-01-01T07:21:16.831Z,32.86
2023-01-01T07:22:16.796Z,32.05
2023-01-01T07:23:16.765Z,32.85
2023-01-01T07:24:16.722Z,33.18
2023-01-01T07:25:16.690Z,32.50
2023-01-01T07:26:16.646Z,33.13
2023-01-01T07:27:16.617Z,35.25
2023-01-01T07:28:16.584Z,33.57
2023-01-01T07:29:16.537Z,33.72
2023-01-01T07:30:16.529Z,34.46
2023-01-01T07:31:16.509Z,33.38
2023-01-01T07:32:16.434Z,33.09
2023-01-01T07:33:16.384Z,34.04
2023-01-01T07:34:16.350Z,32.46
2023-01-01T07:35:16.316Z,33.41
2023-01-01T07:36:16.311Z,33.06
2023-01-01T07:37:16.224Z,32.69
2023-01-01T07:38:16.201Z,32.96
2023-01-01T07:39:16.153Z,32.61
2023-01-01T07:40:16.116Z,33.28
2023-01-01T07:41:16.080Z,32.69
2023-01-01T07:42:16.044Z,32.81
2023-01-01T07:43:16.011Z,32.41
2023-01-01T07:44:15.965Z,32.80
2023-01-01T07:45:15.927Z,31.96
2023-01-01T07:46:15.949Z,32.33
2023-01-01T07:47:15.862Z,31.04
2023-01-01T07:48:15.812Z,32.34
2023-01-01T07:49:15.785Z,33.49
2023-01-01T07:50:15.751Z,32.55
2023-01-01T07:51:15.704Z,33.34
2023-01-01T07:52:15.652Z,32.04
2023-01-01T07:53:15.631Z,32.48
2023-01-01T07:54:15.669Z,31.91
2023-01-01T07:55:15.555Z,32.43
2023-01-01T07:56:15.506Z,33.22
2023-01-01T07:57:15.486Z,31.42
2023-01-01T07:58:15.433Z,32.85
2023-01-01T07:59:20.359Z,31.94
2023-01-01T08:01:15.446Z,31.55
2023-01-01T08:02:15.357Z,33.06
2023-01-01T08:03:15.297Z,32.07
2023-01-01T08:04:15.213Z,31.47
2023-01-01T08:05:15.164Z,32.34
2023-01-01T08:06:15.132Z,32.45
2023-01-01T08:07:15.094Z,31.28
2023-01-01T08:08:15.055Z,32.37
2023-01-01T08:09:15.011Z,32.17
2023-01-01T08:10:14.969Z,32.46
2023-01-01T08:11:14.947Z,33.09
2023-01-01T08:12:14.911Z,31.56
2023-01-01T08:13:14.852Z,31.13
2023-01-01T08:14:14.810Z,31.17
2023-01-01T08:15:14.773Z,30.33
2023-01-01T08:16:14.781Z,32.45
2023-01-01T08:17:14.702Z,31.79
2023-01-01T08:18:14.668Z,31.82
2023-01-01T08:19:14.615Z,30.36
2023-01-01T08:20:14.596Z,31.67
2023-01-01T08:21:14.536Z,31.77
2023-01-01T08:22:14.487Z,32.01
2023-01-01T08:23:14.456Z,29.95
2023-01-01T08:24:14.404Z,31.57
2023-01-01T08:25:14.381Z,30.49
2023-01-01T08:26:14.345Z,30.38
2023-01-01T08:27:14.300Z,31.78
2023-01-01T08:28:14.282Z,29.75
2023-01-01T08:29:14.217Z,31.70
2023-01-01T08:30:14.185Z,30.54
2023-01-01T08:31:14.173Z,32.27
2023-01-01T08:32:14.100Z,31.21
2023-01-01T08:33:14.069Z,30.91
2023-01-01T08:34:14.035Z,30.80
2023-01-01T08:35:13.984Z,31.47
2023-01-01T08:36:13.965Z,31.96
2023-01-01T08:37:13.915Z,30.40
2023-01-01T08:38:13.881Z,30.36
2023-01-01T08:39:13.845Z,30.33
2023-01-01T08:40:13.807Z,29.67
2023-01-01T08:41:13.774Z,29.54
2023-01-01T08:42:13.719Z,31.18
2023-01-01T08:43:13.685Z,30.12
2023-01-01T08:44:13.657Z,29.73
2023-01-01T08:45:13.626Z,30.03
2023-01-01T08:46:13.662Z,29.88
2023-01-01T08:47:13.552Z,29.50
2023-01-01T08:48:13.525Z,30.47
2023-01-01T08:49:13.495Z,30.23
2023-01-01T08:50:13.428Z,31.20
2023-01-01T08:51:13.395Z,29.44
2023-01-01T08:52:13.342Z,28.98
2023-01-01T08:53:13.326Z,30.31
2023-01-01T08:54:13.280Z,30.79
2023-01-01T08:55:13.227Z,30.64
2023-01-01T08:56:13.195Z,30.52
2023-01-01T08:57:13.160Z,29.99
2023-01-01T08:58:13.112Z,28.66
2023-01-01T08:59:13.084Z,29.86
2023-01-01T09:00:13.052Z,28.94
2023-01-01T09:01:13.064Z,29.93
2023-01-01T09:02:13.220Z,28.76
2023-01-01T09:03:13.081Z,28.83
2023-01-01T09:04:15.645Z,30.80
2023-01-01T09:05:12.854Z,28.12
2023-01-01T09:06:12.816Z,28.02
2023-01-01T09:07:12.768Z,29.25
2023-01-01T09:08:12.725Z,29.67
2023-01-01T09:09:12.688Z,29.53
2023-01-01T09:10:12.639Z,28.41
2023-01-01T09:11:12.603Z,29.34
2023-01-01T09:12:12.556Z,29.21
2023-01-01T09:13:12.517Z,28.84
2023-01-01T09:14:12.471Z,29.49
2023-01-01T09:15:12.446Z,27.97
2023-01-01T09:16:12.414Z,27.16
2023-01-01T09:17:12.346Z,29.31
2023-01-01T09:18:12.307Z,28.18
2023-01-01T09:19:12.267Z,28.06
2023-01-01T09:20:12.239Z,27.42
2023-01-01T09:21:12.185Z,27.59
2023-01-01T09:22:12.149Z,28.33
2023-01-01T09:23:12.114Z,28.12
2023-01-01T09:24:12.087Z,27.08
2023-01-01T09:25:12.043Z,27.37
2023-01-01T09:26:12.010Z,27.31
2023-01-01T09:27:11.986Z,27.43
2023-01-01T09:28:11.953Z,26.98
2023-01-01T09:29:11.928Z,26.09
2023-01-01T09:30:11.887Z,27.35
2023-01-01T09:31:11.902Z,26.58
2023-01-01T09:32:11.804Z,26.37
2023-01-01T09:33:11.782Z,28.34
2023-01-01T09:34:11.746Z,28.03
2023-01-01T09:35:11.759Z,25.86
2023-01-01T09:36:11.674Z,27.37
2023-01-01T09:37:11.642Z,26.72
2023-01-01T09:38:11.618Z,26.35
2023-01-01T09:39:11.579Z,26.78
2023-01-01T09:40:11.542Z,26.15
2023-01-01T09:41:11.502Z,26.57
2023-01-01T09:42:11.484Z,25.94
2023-01-01T09:43:11.449Z,25.21
2023-01-01T09:44:11.401Z,24.86
2023-01-01T09:45:11.371Z,26.69
2023-01-01T09:46:11.397Z,25.00
2023-01-01T09:47:11.353Z,26.30
2023-01-01T09:48:11.250Z,25.07
2023-01-01T09:49:11.250Z,26.57
2023-01-01T09:50:11.172Z,24.69
2023-01-01T09:51:11.138Z,24.40
2023-01-01T09:52:11.101Z,24.63
2023-01-01T09:53:11.052Z,25.73
2023-01-01T09:54:11.026Z,25.06
2023-01-01T09:55:11.002Z,24.21
2023-01-01T09:56:10.957Z,25.35
2023-01-01T09:57:16.343Z,25.15
2023-01-01T09:58:11.868Z,24.71
2023-01-01T09:59:10.823Z,24.77
2023-01-01T10:00:10.778Z,23.94
2023-01-01T10:01:10.791Z,22.82
2023-01-01T10:02:10.750Z,23.83
2023-01-01T10:03:10.659Z,24.24
2023-01-01T10:04:10.630Z,25.42
2023-01-01T10:05:10.541Z,25.07
2023-01-01T10:06:10.508Z,22.29
2023-01-01T10:07:10.450Z,24.69
2023-01-01T10:08:10.440Z,23.59
2023-01-01T10:09:10.365Z,22.95
2023-01-01T10:10:10.327Z,23.91
2023-01-01T10:11:10.282Z,22.93
2023-01-01T10:12:10.259Z,23.73
2023-01-01T10:13:10.217Z,22.84
2023-01-01T10:14:11.037Z,23.33
2023-01-01T10:15:10.200Z,22.78
2023-01-01T10:16:10.211Z,21.88
2023-01-01T10:17:10.099Z,23.31
2023-01-01T10:18:10.113Z,23.05
2023-01-01T10:19:09.888Z,22.63
2023-01-01T10:20:09.855Z,22.60
2023-01-01T10:21:09.770Z,22.29
2023-01-01T10:22:09.716Z,22.23
2023-01-01T10:23:09.670Z,22.32
2023-01-01T10:24:09.608Z,22.54
2023-01-01T10:25:09.563Z,23.54
2023-01-01T10:26:09.529Z,23.56
2023-01-01T10:27:09.466Z,21.47
2023-01-01T10:28:09.427Z,22.27
2023-01-01T10:29:09.372Z,22.93
2023-01-01T10:30:09.314Z,22.23
2023-01-01T10:31:09.256Z,21.78
2023-01-01T10:32:09.254Z,22.70
2023-01-01T10:33:09.161Z,21.31
2023-01-01T10:34:09.108Z,22.73
2023-01-01T10:35:09.059Z,21.53
2023-01-01T10:36:09.020Z,21.83
2023-01-01T10:37:08.958Z,22.24
2023-01-01T10:38:08.907Z,22.41
2023-01-01T10:39:08.865Z,22.07
2023-01-01T10:40:08.825Z,21.40
2023-01-01T10:41:13.649Z,20.62
2023-01-01T10:42:09.716Z,22.73
2023-01-01T10:43:08.662Z,21.53
2023-01-01T10:44:08.601Z,21.60
2023-01-01T10:45:08.585Z,22.09
2023-01-01T10:46:08.534Z,21.27
2023-01-01T10:47:08.445Z,22.65
2023-01-01T10:48:08.394Z,20.88
2023-01-01T10:49:08.376Z,21.04
2023-01-01T10:50:08.296Z,20.65
2023-01-01T10:51:08.236Z,20.52
2023-01-01T10:52:08.185Z,20.61
2023-01-01T10:53:08.129Z,20.76
2023-01-01T10:54:08.103Z,21.95
2023-01-01T10:55:08.033Z,21.89
2023-01-01T10:56:07.991Z,20.16
2023-01-01T10:57:07.906Z,20.89
2023-01-01T10:58:07.837Z,20.84
2023-01-01T10:59:07.766Z,19.66
2023-01-01T11:00:07.705Z,20.72
2023-01-01T11:01:07.801Z,20.39
2023-01-01T11:02:07.664Z,18.79
2023-01-01T11:03:07.585Z,21.36
2023-01-01T11:04:07.445Z,19.78
2023-01-01T11:05:12.047Z,19.83
2023-01-01T11:06:08.297Z,20.17
2023-01-01T11:07:07.249Z,20.38
2023-01-01T11:08:07.160Z,19.84
2023-01-01T11:09:07.158Z,20.78
2023-01-01T11:10:06.999Z,19.03
2023-01-01T11:11:06.931Z,19.60
2023-01-01T11:12:15.171Z,18.75
2023-01-01T11:13:07.780Z,19.03
2023-01-01T11:14:06.710Z,18.28
2023-01-01T11:15:06.639Z,18.58
2023-01-01T11:16:06.585Z,17.60
2023-01-01T11:17:06.584Z,19.08
2023-01-01T11:18:06.448Z,18.89
2023-01-01T11:19:06.361Z,18.98
2023-01-01T11:20:06.309Z,18.13
2023-01-01T11:21:06.231Z,19.02
2023-01-01T11:22:06.155Z,19.33
2023-01-01T11:23:06.100Z,18.91
2023-01-01T11:24:06.009Z,18.63
2023-01-01T11:25:05.942Z,18.03
2023-01-01T11:26:05.869Z,18.25
2023-01-01T11:27:05.797Z,19.59
2023-01-01T11:28:05.732Z,17.34
2023-01-01T11:29:05.660Z,17.68
2023-01-01T11:30:05.604Z,18.21
2023-01-01T11:31:05.640Z,17.83
2023-01-01T11:32:05.467Z,17.38
2023-01-01T11:33:05.412Z,18.85
2023-01-01T11:34:05.312Z,17.96
2023-01-01T11:35:05.232Z,17.65
2023-01-01T11:36:05.168Z,17.15
2023-01-01T11:37:05.098Z,16.47
2023-01-01T11:38:04.996Z,16.73
2023-01-01T11:39:04.914Z,17.05
2023-01-01T11:40:04.836Z,18.12
2023-01-01T11:41:04.783Z,18.39
2023-01-01T11:42:04.647Z,17.15
2023-01-01T11:43:04.574Z,17.41
2023-01-01T11:44:04.498Z,17.30
2023-01-01T11:45:04.396Z,16.46
2023-01-01T11:46:04.383Z,16.99
2023-01-01T11:47:04.227Z,16.43
2023-01-01T11:48:04.152Z,16.70
2023-01-01T11:49:04.058Z,16.62
2023-01-01T11:50:03.980Z,16.01
2023-01-01T11:51:03.900Z,16.25
2023-01-01T11:52:03.827Z,15.87
2023-01-01T11:53:03.728Z,16.44
2023-01-01T11:54:03.646Z,15.99
2023-01-01T11:55:03.563Z,15.56
2023-01-01T11:56:03.484Z,16.48
2023-01-01T11:57:03.402Z,16.57
2023-01-01T11:58:03.305Z,15.53
2023-01-01T11:59:03.223Z,15.91
2023-01-01T12:00:03.147Z,16.41
2023-01-01T12:01:03.099Z,14.83
2023-01-01T12:02:02.988Z,16.02
2023-01-01T12:03:02.895Z,16.04
2023-01-01T12:04:02.878Z,16.16
2023-01-01T12:05:02.751Z,15.56
2023-01-01T12:06:02.696Z,16.14
2023-01-01T12:07:02.601Z,15.57
2023-01-01T12:08:02.543Z,15.05
2023-01-01T12:09:02.436Z,15.76
2023-01-01T12:10:02.364Z,13.77
2023-01-01T12:11:02.287Z,14.82
2023-01-01T12:12:02.205Z,15.51
2023-01-01T12:13:02.129Z,15.05
2023-01-01T12:14:02.058Z,15.84
2023-01-01T12:15:01.973Z,15.17
2023-01-01T12:16:01.916Z,14.76
2023-01-01T12:17:01.829Z,14.36
2023-01-01T12:18:01.774Z,15.02
2023-01-01T12:19:01.664Z,14.39
2023-01-01T12:20:01.594Z,14.34
2023-01-01T12:21:01.512Z,14.88
2023-01-01T12:22:01.433Z,14.00
2023-01-01T12:23:01.355Z,13.86
2023-01-01T12:24:01.268Z,13.68
2023-01-01T12:25:01.224Z,14.22
2023-01-01T12:26:01.116Z,14.17
2023-01-01T12:27:05.220Z,13.37
2023-01-01T12:28:01.978Z,14.19
2023-01-01T12:29:00.892Z,14.33
2023-01-01T12:30:00.815Z,13.47
2023-01-01T12:31:00.767Z,14.75
2023-01-01T12:32:00.636Z,13.45
2023-01-01T12:33:07.285Z,14.29
2023-01-01T12:34:00.570Z,13.51
2023-01-01T12:35:00.420Z,14.27
2023-01-01T12:36:01.197Z,13.64
2023-01-01T12:37:00.334Z,14.33
2023-01-01T12:38:00.128Z,13.43
2023-01-01T12:39:00.011Z,13.55
2023-01-01T12:39:59.927Z,13.23
2023-01-01T12:40:59.841Z,13.77
2023-01-01T12:41:59.756Z,13.53
2023-01-01T12:42:59.657Z,13.53
2023-01-01T12:43:59.579Z,13.08
2023-01-01T12:44:59.454Z,13.34
2023-01-01T12:45:59.438Z,13.22
2023-01-01T12:46:59.276Z,13.60
2023-01-01T12:47:59.177Z,13.60
2023-01-01T12:48:59.074Z,13.50
2023-01-01T12:49:58.980Z,13.45
2023-01-01T13:25:57.458Z,11.80
2023-01-01T13:26:57.433Z,12.03
2023-01-01T13:27:57.433Z,11.71
2023-01-01T13:28:57.317Z,11.24
2023-01-01T13:29:57.263Z,10.60
2023-01-01T13:30:57.203Z,11.49
2023-01-01T13:31:57.140Z,10.74
2023-01-01T13:32:57.099Z,11.73
2023-01-01T13:33:57.027Z,11.34
2023-01-01T13:34:56.943Z,11.53
2023-01-01T13:35:56.879Z,11.26
2023-01-01T13:36:56.742Z,11.56
2023-01-01T13:37:56.649Z,10.82
2023-01-01T13:38:56.510Z,11.07
2023-01-01T13:39:56.362Z,11.63
2023-01-01T13:40:56.258Z,10.00
2023-01-01T13:41:56.100Z,10.69
2023-01-01T13:42:59.339Z,10.92
2023-01-01T13:44:55.764Z,10.30
2023-01-01T13:46:17.520Z,9.79
2023-01-01T13:47:55.489Z,11.26
2023-01-01T13:49:01.175Z,10.27
2023-01-01T13:49:56.303Z,10.61
2023-01-01T13:50:55.216Z,9.90
2023-01-01T13:52:05.192Z,10.64
2023-01-01T13:52:56.038Z,10.82
2023-01-01T13:53:54.967Z,11.35
2023-01-01T13:54:54.883Z,10.70
2023-01-01T13:55:54.909Z,10.05
2023-01-01T13:56:54.727Z,10.78
2023-01-01T13:57:54.659Z,10.49
2023-01-01T13:58:54.569Z,10.76
2023-01-01T13:59:54.488Z,10.91
2023-01-01T14:00:54.466Z,9.75
2023-01-01T14:01:54.521Z,10.27
2023-01-01T14:02:54.323Z,10.18
2023-01-01T14:03:54.206Z,9.47
2023-01-01T14:04:54.131Z,10.20
2023-01-01T14:05:54.071Z,10.82
2023-01-01T14:06:54.011Z,10.73
2023-01-01T14:07:53.946Z,9.71
2023-01-01T14:08:53.881Z,11.05
2023-01-01T14:09:53.834Z,10.12
2023-01-01T14:10:53.787Z,10.62
2023-01-01T14:11:53.710Z,10.53
2023-01-01T14:12:53.662Z,10.56
2023-01-01T14:13:53.586Z,10.18
2023-01-01T14:14:53.527Z,10.63
2023-01-01T14:15:53.545Z,10.43
2023-01-01T14:16:53.423Z,10.73
2023-01-01T14:17:53.359Z,10.22
2023-01-01T14:18:53.292Z,11.08
2023-01-01T14:19:53.245Z,10.21
2023-01-01T14:20:53.207Z,10.89
2023-01-01T14:21:53.126Z,10.11
2023-01-01T14:22:53.082Z,10.75
2023-01-01T14:23:53.024Z,9.62
2023-01-01T14:24:52.974Z,9.84
2023-01-01T14:25:52.902Z,10.13
2023-01-01T14:26:52.852Z,10.36
2023-01-01T14:27:52.794Z,9.55
2023-01-01T14:28:52.751Z,10.14
2023-01-01T14:29:52.687Z,9.50
2023-01-01T14:30:52.621Z,9.82
2023-01-01T14:31:52.620Z,9.33
2023-01-01T14:32:52.530Z,9.16
2023-01-01T14:33:52.456Z,9.20
2023-01-01T14:34:52.405Z,9.69
2023-01-01T14:35:52.336Z,9.64
2023-01-01T14:36:52.291Z,9.59
2023-01-01T14:37:52.233Z,9.83
2023-01-01T14:38:52.202Z,10.14
2023-01-01T14:39:52.146Z,9.68